Terminal Aerodrome Forecast
Issued by NWS North Platte, NE

Home | Current Version | Previous Version | Text Only | Print | Product List | Glossary On
Versions: 1 2 3 4 5 6 7 8 9 10 11 12 13 14 15
031
FTUS43 KLBF 181127
TAFVTN
TAF
KVTN 181127Z 1812/1912 31014KT P6SM SKC
     FM181600 31014G24KT P6SM FEW250
     FM190000 31008KT P6SM SKC=

USA.gov is the U.S. government's official web portal to all federal, state and local government web resources and services.